createdAt,value
2018-12-03T00:02:07.563Z,100.00
2018-12-03T00:06:16.149Z,100.00
2018-12-03T00:10:23.745Z,100.00
2018-12-03T00:14:31.657Z,100.00
2018-12-03T00:18:39.034Z,100.00
2018-12-03T00:22:47.182Z,100.00
2018-12-03T00:26:54.705Z,100.00
2018-12-03T00:31:02.167Z,100.00
2018-12-03T00:35:11.026Z,100.00
2018-12-03T00:39:18.772Z,100.00
2018-12-03T00:43:27.959Z,100.00
2018-12-03T00:47:35.430Z,100.00
2018-12-03T00:51:43.247Z,100.00
2018-12-03T00:55:50.804Z,100.00
2018-12-03T00:59:58.210Z,100.00
2018-12-03T01:04:07.215Z,100.00
2018-12-03T01:08:14.780Z,100.00
2018-12-03T01:12:22.320Z,100.00
2018-12-03T01:16:29.827Z,100.00
2018-12-03T01:20:37.311Z,100.00
2018-12-03T01:24:46.171Z,99.85
2018-12-03T01:28:53.666Z,99.53
2018-12-03T01:33:00.993Z,99.53
2018-12-03T01:37:09.590Z,99.44
2018-12-03T01:41:17.135Z,99.30
2018-12-03T01:45:24.505Z,99.03
2018-12-03T01:49:32.139Z,98.74
2018-12-03T01:53:42.203Z,98.97
2018-12-03T01:57:49.638Z,98.80
2018-12-03T02:01:57.207Z,98.63
2018-12-03T02:06:05.044Z,98.41
2018-12-03T02:10:17.197Z,98.26
2018-12-03T02:14:24.956Z,98.30
2018-12-03T02:18:32.623Z,98.10
2018-12-03T02:22:40.504Z,98.07
2018-12-03T02:26:48.476Z,98.16
2018-12-03T02:30:56.017Z,98.33
2018-12-03T02:35:03.937Z,98.08
2018-12-03T02:39:12.094Z,98.37
2018-12-03T02:43:19.927Z,98.56
2018-12-03T02:47:27.362Z,98.87
2018-12-03T02:51:34.743Z,99.07
2018-12-03T02:55:42.167Z,99.00
2018-12-03T02:59:49.574Z,98.89
2018-12-03T03:03:57.116Z,98.76
2018-12-03T03:08:04.795Z,98.52
2018-12-03T03:12:12.323Z,98.02
2018-12-03T03:16:19.926Z,97.82
2018-12-03T03:20:27.393Z,97.99
2018-12-03T03:24:35.127Z,98.16
2018-12-03T03:28:42.650Z,98.27
2018-12-03T03:32:50.026Z,98.39
2018-12-03T03:36:57.423Z,98.37
2018-12-03T03:41:05.120Z,98.37
2018-12-03T03:45:25.023Z,98.31
2018-12-03T03:49:32.926Z,98.42
2018-12-03T03:53:40.485Z,98.64
2018-12-03T03:57:48.135Z,98.89
2018-12-03T04:01:55.582Z,99.09
2018-12-03T04:06:03.361Z,99.55
2018-12-03T04:10:56.425Z,99.88
2018-12-03T04:15:03.825Z,100.00
2018-12-03T04:19:11.562Z,100.00
2018-12-03T04:23:19.064Z,100.00
2018-12-03T04:27:26.630Z,100.00
2018-12-03T04:31:34.452Z,100.00
2018-12-03T04:35:43.864Z,100.00
2018-12-03T04:39:51.535Z,100.00
2018-12-03T04:43:58.964Z,100.00
2018-12-03T04:48:06.815Z,100.00
2018-12-03T04:52:14.263Z,100.00
2018-12-03T04:56:21.761Z,100.00
2018-12-03T05:00:29.274Z,100.00
2018-12-03T05:04:37.178Z,100.00
2018-12-03T05:08:44.884Z,100.00
2018-12-03T05:12:56.162Z,100.00
2018-12-03T05:17:03.664Z,100.00
2018-12-03T05:21:11.062Z,100.00
2018-12-03T05:25:19.505Z,100.00
2018-12-03T05:29:27.140Z,100.00
2018-12-03T05:33:35.169Z,100.00
2018-12-03T05:37:42.761Z,100.00
2018-12-03T05:41:50.299Z,100.00
2018-12-03T05:45:57.979Z,100.00
2018-12-03T05:50:06.996Z,100.00
2018-12-03T05:54:14.698Z,100.00
2018-12-03T05:58:22.530Z,100.00
2018-12-03T06:02:44.563Z,100.00
2018-12-03T06:06:53.938Z,100.00
2018-12-03T06:11:01.879Z,100.00
2018-12-03T06:15:17.695Z,100.00
2018-12-03T06:19:25.331Z,100.00
2018-12-03T06:23:33.581Z,100.00
2018-12-03T06:27:45.296Z,100.00
2018-12-03T06:31:53.244Z,100.00
2018-12-03T06:36:01.068Z,100.00
2018-12-03T06:40:26.951Z,100.00
2018-12-03T06:44:34.901Z,100.00
2018-12-03T06:48:42.822Z,100.00
2018-12-03T06:52:51.312Z,100.00
2018-12-03T06:56:59.011Z,100.00
2018-12-03T07:01:09.726Z,100.00
2018-12-03T07:05:17.668Z,100.00
2018-12-03T07:09:25.705Z,100.00
2018-12-03T07:13:33.153Z,100.00
2018-12-03T07:17:40.813Z,100.00
2018-12-03T07:21:48.252Z,99.96
2018-12-03T07:25:55.642Z,99.61
2018-12-03T07:30:05.151Z,99.26
2018-12-03T07:34:12.599Z,98.86
2018-12-03T07:38:20.726Z,98.32
2018-12-03T07:42:28.832Z,98.09
2018-12-03T07:46:41.173Z,97.94
2018-12-03T07:50:49.068Z,98.22
2018-12-03T07:54:58.176Z,98.39
2018-12-03T07:59:07.874Z,98.44
2018-12-03T08:03:18.697Z,98.60
2018-12-03T08:07:26.861Z,98.90
2018-12-03T08:11:34.728Z,99.24
2018-12-03T08:15:42.319Z,99.69
2018-12-03T08:19:56.546Z,99.85
2018-12-03T08:24:14.919Z,99.75
2018-12-03T08:28:22.276Z,99.66
2018-12-03T08:32:31.814Z,99.67
2018-12-03T08:36:39.325Z,99.43
2018-12-03T08:40:50.287Z,99.11
2018-12-03T08:45:01.600Z,98.90
2018-12-03T08:49:12.757Z,96.66
2018-12-03T08:53:22.825Z,96.88
2018-12-03T08:57:30.428Z,96.82
2018-12-03T09:01:39.495Z,96.65
2018-12-03T09:05:47.676Z,95.77
2018-12-03T09:09:56.040Z,92.72
2018-12-03T09:14:04.696Z,91.83
2018-12-03T09:18:15.656Z,93.30
2018-12-03T09:22:23.647Z,93.33
2018-12-03T09:26:39.565Z,93.62
2018-12-03T09:30:50.540Z,93.73
2018-12-03T09:35:02.161Z,93.94
2018-12-03T09:39:21.039Z,94.25
2018-12-03T09:43:30.590Z,94.36
2018-12-03T09:47:41.851Z,94.60
2018-12-03T09:51:49.655Z,94.95
2018-12-03T09:55:57.604Z,95.30
2018-12-03T10:00:10.217Z,95.75
2018-12-03T10:04:32.170Z,95.86
2018-12-03T10:08:39.833Z,95.97
2018-12-03T10:12:47.653Z,96.16
2018-12-03T10:16:55.082Z,96.43
2018-12-03T10:21:03.961Z,97.40
2018-12-03T10:25:22.847Z,97.85
2018-12-03T10:29:32.305Z,98.36
2018-12-03T10:33:41.700Z,98.52
2018-12-03T10:37:50.097Z,98.45
2018-12-03T10:42:24.121Z,98.97
2018-12-03T10:46:33.674Z,98.61
2018-12-03T10:50:45.650Z,98.72
2018-12-03T10:54:54.801Z,98.57
2018-12-03T10:59:04.392Z,98.71
2018-12-03T11:03:34.922Z,98.47
2018-12-03T11:07:42.648Z,98.18
2018-12-03T11:11:54.578Z,97.80
2018-12-03T11:16:02.313Z,97.25
2018-12-03T11:20:15.034Z,96.58
2018-12-03T11:24:22.422Z,96.24
2018-12-03T11:29:00.802Z,95.83
2018-12-03T11:33:09.071Z,95.11
2018-12-03T11:37:22.588Z,94.44
2018-12-03T11:41:39.611Z,94.61
2018-12-03T11:45:50.085Z,94.07
2018-12-03T11:50:01.016Z,93.39
2018-12-03T11:54:11.717Z,92.79
2018-12-03T11:58:20.058Z,92.75
2018-12-03T12:02:30.267Z,92.50
2018-12-03T12:06:39.237Z,91.52
2018-12-03T12:10:47.312Z,91.18
2018-12-03T12:14:57.332Z,90.48
2018-12-03T12:19:08.378Z,90.93
2018-12-03T12:23:19.817Z,90.22
2018-12-03T12:27:37.657Z,90.70
2018-12-03T12:31:48.133Z,90.47
2018-12-03T12:35:57.280Z,90.73
2018-12-03T12:40:13.490Z,89.98
2018-12-03T12:44:24.003Z,89.67
2018-12-03T12:48:35.961Z,89.60
2018-12-03T12:52:47.932Z,89.38
2018-12-03T12:57:02.924Z,88.90
2018-12-03T13:01:18.253Z,88.57
2018-12-03T13:05:39.633Z,88.20
2018-12-03T13:09:49.606Z,88.52
2018-12-03T13:14:00.615Z,88.61
2018-12-03T13:18:14.579Z,89.21
2018-12-03T13:22:49.751Z,90.21
2018-12-03T13:27:10.495Z,91.04
2018-12-03T13:31:23.518Z,91.74
2018-12-03T13:35:33.126Z,92.13
2018-12-03T13:39:50.337Z,92.61
2018-12-03T13:44:01.660Z,92.98
2018-12-03T13:48:19.281Z,93.06
2018-12-03T13:52:27.231Z,93.31
2018-12-03T13:57:07.167Z,93.72
2018-12-03T14:01:16.045Z,93.92
2018-12-03T14:05:37.017Z,94.78
2018-12-03T14:10:56.743Z,95.43
2018-12-03T14:15:50.520Z,96.38
2018-12-03T14:20:02.849Z,97.00
2018-12-03T14:24:23.586Z,97.33
2018-12-03T14:28:36.277Z,97.51
2018-12-03T14:32:47.391Z,97.68
2018-12-03T14:36:58.335Z,97.69
2018-12-03T14:41:07.554Z,98.14
2018-12-03T14:45:19.507Z,97.82
2018-12-03T14:49:31.875Z,97.54
2018-12-03T14:53:42.139Z,97.79
2018-12-03T14:57:50.076Z,97.59
2018-12-03T15:02:04.929Z,97.64
2018-12-03T15:06:20.734Z,97.66
2018-12-03T15:10:35.526Z,97.41
2018-12-03T15:14:49.846Z,97.45
2018-12-03T15:18:57.386Z,97.50
2018-12-03T15:23:06.245Z,97.49
2018-12-03T15:27:27.618Z,97.53
2018-12-03T15:31:44.720Z,97.31
2018-12-03T15:35:55.732Z,97.35
2018-12-03T15:40:12.017Z,97.32
2018-12-03T15:44:31.556Z,97.11
2018-12-03T15:48:41.564Z,96.79
2018-12-03T15:52:53.238Z,97.15
2018-12-03T15:57:04.660Z,97.31
2018-12-03T16:01:14.547Z,97.49
2018-12-03T16:05:29.317Z,97.33
2018-12-03T16:09:39.763Z,97.43
2018-12-03T16:13:47.380Z,97.59
2018-12-03T16:18:00.315Z,97.83
2018-12-03T16:22:15.036Z,98.47
2018-12-03T16:26:28.893Z,98.73
2018-12-03T16:30:36.708Z,98.95
2018-12-03T16:34:59.466Z,99.05
2018-12-03T16:39:24.195Z,99.11
2018-12-03T16:43:37.575Z,99.28
2018-12-03T16:47:54.910Z,99.50
2018-12-03T16:52:04.717Z,99.74
2018-12-03T16:56:17.976Z,99.62
2018-12-03T17:01:08.310Z,99.82
2018-12-03T17:05:46.470Z,100.00
2018-12-03T17:09:57.119Z,99.96
2018-12-03T17:14:24.307Z,99.70
2018-12-03T17:18:53.565Z,100.00
2018-12-03T17:24:17.783Z,99.90
2018-12-03T17:28:36.338Z,99.81
2018-12-03T17:37:35.667Z,99.22
2018-12-03T17:41:46.638Z,98.77
2018-12-03T17:46:03.499Z,98.70
2018-12-03T17:50:58.268Z,98.43
2018-12-03T17:55:16.734Z,98.37
2018-12-03T17:59:37.231Z,98.51
2018-12-03T18:03:44.953Z,98.31
2018-12-03T18:08:01.484Z,98.26
2018-12-03T18:12:11.499Z,98.44
2018-12-03T18:16:34.910Z,98.38
2018-12-03T18:20:48.092Z,98.52
2018-12-03T18:25:02.382Z,98.47
2018-12-03T18:29:17.256Z,98.16
2018-12-03T18:33:34.303Z,97.94
2018-12-03T18:37:52.881Z,97.66
2018-12-03T18:42:08.569Z,97.28
2018-12-03T18:46:16.373Z,97.33
2018-12-03T18:50:40.465Z,97.23
2018-12-03T18:55:21.016Z,97.05
2018-12-03T18:59:42.127Z,97.12
2018-12-03T19:04:28.768Z,97.06
2018-12-03T19:08:38.814Z,97.14
2018-12-03T19:12:47.286Z,97.38
2018-12-03T19:17:51.596Z,97.60
2018-12-03T19:22:03.896Z,97.90
2018-12-03T19:26:19.877Z,98.17
2018-12-03T19:30:29.208Z,98.14
2018-12-03T19:34:45.215Z,98.34
2018-12-03T19:38:57.362Z,98.31
2018-12-03T19:43:08.562Z,98.42
2018-12-03T19:47:16.509Z,98.56
2018-12-03T19:51:24.919Z,98.35
2018-12-03T19:55:35.859Z,98.36
2018-12-03T19:59:50.387Z,98.33
2018-12-03T20:03:58.629Z,98.21
2018-12-03T20:08:06.703Z,98.62
2018-12-03T20:12:14.598Z,98.69
2018-12-03T20:16:23.268Z,98.69
2018-12-03T20:21:07.588Z,98.78
2018-12-03T20:25:22.915Z,98.69
2018-12-03T20:29:50.254Z,98.68
2018-12-03T20:34:46.095Z,98.48
2018-12-03T20:39:39.380Z,98.62
2018-12-03T20:43:55.846Z,98.61
2018-12-03T20:48:03.282Z,98.63
2018-12-03T20:52:28.910Z,98.50
2018-12-03T20:56:39.188Z,98.78
2018-12-03T21:00:47.210Z,98.67
2018-12-03T21:04:57.936Z,98.76
2018-12-03T21:09:09.071Z,98.72
2018-12-03T21:13:18.311Z,98.63
2018-12-03T21:17:28.515Z,98.27
2018-12-03T21:21:37.289Z,98.17
2018-12-03T21:25:46.458Z,98.10
2018-12-03T21:29:54.929Z,98.36
2018-12-03T21:34:06.717Z,98.00
2018-12-03T21:38:14.898Z,97.95
2018-12-03T21:42:29.687Z,97.26
2018-12-03T21:46:38.298Z,96.50
2018-12-03T21:50:46.477Z,96.35
2018-12-03T21:55:07.825Z,95.97
2018-12-03T21:59:15.311Z,95.75
2018-12-03T22:03:34.874Z,95.08
2018-12-03T22:07:45.060Z,95.00
2018-12-03T22:11:55.373Z,94.70
2018-12-03T22:16:24.103Z,94.21
2018-12-03T22:21:03.451Z,93.76
2018-12-03T22:25:15.290Z,93.37
2018-12-03T22:29:30.530Z,93.22
2018-12-03T22:34:03.922Z,92.90
2018-12-03T22:38:31.543Z,92.59
2018-12-03T22:42:46.544Z,92.33
2018-12-03T22:47:07.114Z,91.97
2018-12-03T22:51:32.002Z,91.52
2018-12-03T22:55:43.223Z,90.92
2018-12-03T23:00:44.900Z,90.43
2018-12-03T23:05:29.072Z,89.96
2018-12-03T23:10:00.049Z,90.05
2018-12-03T23:14:37.964Z,89.89
2018-12-03T23:19:04.058Z,90.10
2018-12-03T23:23:49.639Z,89.81
2018-12-03T23:28:21.286Z,89.98
2018-12-03T23:32:42.899Z,89.93
2018-12-03T23:37:36.782Z,90.94
2018-12-03T23:41:43.106Z,91.61
2018-12-03T23:46:31.019Z,91.71
2018-12-03T23:50:50.597Z,91.45
2018-12-03T23:55:12.365Z,90.72
2018-12-03T23:59:22.669Z,89.97
